createdAt,value
2023-12-05T00:00:30.765Z,23.52
2023-12-05T00:02:58.408Z,26.83
2023-12-05T00:05:25.191Z,19.08
2023-12-05T00:07:52.001Z,18.25
2023-12-05T00:10:18.761Z,28.25
2023-12-05T00:12:45.589Z,27.05
2023-12-05T00:15:12.424Z,29.45
2023-12-05T00:17:39.297Z,18.75
2023-12-05T00:20:07.209Z,23.85
2023-12-05T00:22:34.784Z,26.38
2023-12-05T00:25:01.607Z,22.10
2023-12-05T00:27:28.494Z,26.02
2023-12-05T00:29:55.598Z,31.38
2023-12-05T00:32:22.383Z,23.70
2023-12-05T00:34:49.293Z,23.42
2023-12-05T00:37:16.212Z,17.23
2023-12-05T00:39:42.978Z,13.55
2023-12-05T00:42:09.905Z,24.27
2023-12-05T00:44:36.769Z,26.20
2023-12-05T00:47:06.214Z,23.27
2023-12-05T00:49:36.682Z,20.50
2023-12-05T00:52:03.849Z,22.08
2023-12-05T00:54:31.020Z,23.92
2023-12-05T00:56:57.765Z,25.60
2023-12-05T00:59:24.846Z,26.23
2023-12-05T01:01:51.819Z,25.85
2023-12-05T01:04:19.311Z,25.35
2023-12-05T01:06:46.240Z,23.33
2023-12-05T01:09:13.414Z,21.08
2023-12-05T01:11:40.849Z,22.13
2023-12-05T01:14:07.662Z,20.83
2023-12-05T01:16:35.205Z,18.92
2023-12-05T01:19:02.360Z,18.00
2023-12-05T01:21:29.210Z,19.13
2023-12-05T01:23:56.016Z,22.85
2023-12-05T01:26:22.782Z,22.92
2023-12-05T01:28:49.855Z,30.42
2023-12-05T01:31:17.725Z,17.95
2023-12-05T01:33:45.019Z,24.00
2023-12-05T01:36:12.521Z,21.25
2023-12-05T01:38:40.587Z,21.15
2023-12-05T01:41:08.709Z,22.25
2023-12-05T01:43:35.549Z,23.73
2023-12-05T01:46:03.381Z,15.20
2023-12-05T01:48:33.614Z,21.80
2023-12-05T01:51:03.689Z,19.35
2023-12-05T01:56:00.497Z,18.58
2023-12-05T01:58:28.281Z,21.63
2023-12-05T02:00:55.226Z,20.88
2023-12-05T02:03:22.208Z,17.67
2023-12-05T02:05:49.818Z,21.80
2023-12-05T02:08:19.504Z,19.25
2023-12-05T02:10:46.360Z,17.55
2023-12-05T02:13:13.264Z,22.42
2023-12-05T02:15:40.198Z,17.48
2023-12-05T02:18:19.927Z,19.60
2023-12-05T02:20:58.875Z,24.83
2023-12-05T02:23:59.338Z,15.23
2023-12-05T02:26:42.994Z,16.33
2023-12-05T02:29:09.766Z,23.05
2023-12-05T02:31:36.507Z,21.38
2023-12-05T02:34:03.478Z,19.40
2023-12-05T02:36:46.366Z,14.05
2023-12-05T02:39:18.942Z,27.50
2023-12-05T02:41:53.235Z,21.48
2023-12-05T02:44:23.867Z,13.57
2023-12-05T02:46:52.232Z,22.38
2023-12-05T02:49:19.442Z,32.90
2023-12-05T02:51:46.662Z,17.73
2023-12-05T02:54:13.508Z,25.58
2023-12-05T02:56:41.307Z,14.05
2023-12-05T02:59:08.113Z,25.90
2023-12-05T03:01:40.506Z,17.67
2023-12-05T03:04:07.753Z,24.08
2023-12-05T03:06:34.764Z,15.90
2023-12-05T03:09:04.731Z,11.32
2023-12-05T03:11:32.337Z,20.20
2023-12-05T03:14:00.323Z,22.67
2023-12-05T03:16:28.115Z,21.63
2023-12-05T03:18:55.292Z,15.90
2023-12-05T03:21:22.680Z,20.35
2023-12-05T03:23:49.616Z,19.23
2023-12-05T03:26:23.342Z,21.30
2023-12-05T03:28:51.114Z,16.95
2023-12-05T03:31:18.651Z,20.77
2023-12-05T03:33:45.585Z,22.67
2023-12-05T03:36:13.412Z,27.75
2023-12-05T03:38:44.028Z,24.55
2023-12-05T03:41:19.835Z,23.02
2023-12-05T03:43:46.664Z,19.58
2023-12-05T03:46:13.947Z,28.42
2023-12-05T03:48:42.734Z,19.92
2023-12-05T03:51:09.515Z,23.17
2023-12-05T03:53:36.408Z,24.00
2023-12-05T03:56:03.220Z,21.70
2023-12-05T03:58:30.053Z,19.55
2023-12-05T04:00:56.981Z,23.83
2023-12-05T04:03:24.434Z,24.50
2023-12-05T04:05:51.368Z,25.48
2023-12-05T04:08:18.147Z,30.15
2023-12-05T04:10:45.082Z,20.13
2023-12-05T04:13:11.843Z,24.73
2023-12-05T04:15:40.379Z,26.75
2023-12-05T04:18:07.329Z,26.23
2023-12-05T04:20:34.409Z,19.70
2023-12-05T04:23:01.232Z,23.20
2023-12-05T04:25:27.966Z,20.95
2023-12-05T04:27:54.804Z,23.15
2023-12-05T04:30:23.106Z,18.52
2023-12-05T04:32:50.086Z,21.05
2023-12-05T04:35:16.935Z,26.27
2023-12-05T04:37:44.024Z,28.95
2023-12-05T04:40:11.132Z,22.17
2023-12-05T04:42:38.650Z,28.27
2023-12-05T04:45:06.102Z,27.60
2023-12-05T04:47:33.432Z,31.55
2023-12-05T04:50:00.268Z,21.48
2023-12-05T04:52:27.414Z,23.48
2023-12-05T04:54:54.180Z,23.70
2023-12-05T04:57:20.983Z,28.55
2023-12-05T04:59:47.981Z,25.08
2023-12-05T05:02:14.946Z,19.27
2023-12-05T05:04:42.195Z,24.52
2023-12-05T05:07:09.209Z,18.10
2023-12-05T05:09:37.657Z,20.17
2023-12-05T05:12:05.075Z,18.25
2023-12-05T05:14:31.763Z,25.25
2023-12-05T05:16:59.006Z,15.10
2023-12-05T05:19:26.016Z,30.38
2023-12-05T05:21:52.882Z,26.10
2023-12-05T05:24:19.727Z,18.25
2023-12-05T05:26:46.507Z,25.10
2023-12-05T05:29:13.346Z,22.75
2023-12-05T05:31:40.215Z,24.33
2023-12-05T05:34:07.116Z,29.50
2023-12-05T05:36:34.165Z,23.25
2023-12-05T05:39:01.992Z,23.17
2023-12-05T05:41:29.109Z,30.90
2023-12-05T05:43:56.395Z,27.30
2023-12-05T05:46:23.174Z,26.15
2023-12-05T05:48:50.012Z,19.80
2023-12-05T05:51:16.952Z,26.27
2023-12-05T05:53:43.723Z,26.38
2023-12-05T05:56:11.060Z,29.10
2023-12-05T05:58:37.861Z,17.63
2023-12-05T06:01:05.208Z,29.35
2023-12-05T06:03:32.804Z,23.58
2023-12-05T06:06:02.836Z,15.68
2023-12-05T06:08:30.866Z,33.10
2023-12-05T06:10:57.621Z,23.67
2023-12-05T06:13:24.974Z,27.23
2023-12-05T06:15:52.375Z,23.52
2023-12-05T06:18:19.188Z,30.42
2023-12-05T06:20:47.752Z,21.98
2023-12-05T06:23:14.480Z,32.40
2023-12-05T06:25:41.341Z,28.42
2023-12-05T06:28:08.193Z,28.63
2023-12-05T06:30:35.170Z,24.95
2023-12-05T06:33:02.176Z,26.90
2023-12-05T06:35:29.103Z,31.77
2023-12-05T06:37:55.849Z,37.58
2023-12-05T06:40:22.604Z,31.10
2023-12-05T06:42:50.206Z,27.00
2023-12-05T06:45:17.169Z,32.13
2023-12-05T06:47:44.192Z,24.00
2023-12-05T06:50:12.936Z,21.13
2023-12-05T06:52:41.692Z,33.78
2023-12-05T06:55:09.573Z,25.45
2023-12-05T06:57:36.648Z,26.92
2023-12-05T07:00:05.338Z,21.95
2023-12-05T07:02:32.199Z,28.67
2023-12-05T07:05:00.132Z,27.95
2023-12-05T07:07:27.250Z,22.50
2023-12-05T07:09:54.081Z,25.23
2023-12-05T07:12:20.978Z,28.75
2023-12-05T07:14:47.909Z,31.88
2023-12-05T07:17:14.684Z,36.20
2023-12-05T07:19:41.478Z,27.85
2023-12-05T07:22:08.528Z,33.13
2023-12-05T07:24:35.272Z,32.08
2023-12-05T07:27:02.258Z,24.92
2023-12-05T07:29:29.422Z,31.90
2023-12-05T07:31:56.596Z,26.50
2023-12-05T07:34:23.471Z,37.80
2023-12-05T07:36:50.263Z,30.92
2023-12-05T07:39:17.163Z,27.80
2023-12-05T07:41:44.279Z,34.13
2023-12-05T07:44:11.991Z,44.20
2023-12-05T07:46:43.041Z,36.80
2023-12-05T07:49:11.143Z,32.95
2023-12-05T07:51:39.007Z,27.27
2023-12-05T07:54:06.732Z,30.52
2023-12-05T07:56:33.782Z,31.52
2023-12-05T07:59:00.830Z,32.03
2023-12-05T08:01:28.088Z,31.65
2023-12-05T08:03:55.160Z,32.35
2023-12-05T08:06:22.572Z,40.35
2023-12-05T08:08:49.450Z,37.13
2023-12-05T08:11:16.514Z,43.88
2023-12-05T08:13:43.302Z,36.78
2023-12-05T08:16:10.369Z,45.28
2023-12-05T08:18:37.616Z,41.97
2023-12-05T08:21:05.026Z,45.15
2023-12-05T08:23:31.821Z,44.85
2023-12-05T08:25:58.551Z,40.20
2023-12-05T08:28:25.721Z,40.38
2023-12-05T08:30:52.487Z,37.40
2023-12-05T08:33:19.848Z,46.60
2023-12-05T08:35:47.485Z,38.15
2023-12-05T08:38:14.229Z,43.85
2023-12-05T08:40:40.949Z,40.42
2023-12-05T08:43:07.767Z,36.28
2023-12-05T08:45:34.613Z,50.50
2023-12-05T08:48:01.506Z,39.00
2023-12-05T08:50:28.535Z,45.47
2023-12-05T08:52:56.147Z,41.78
2023-12-05T08:55:22.992Z,40.28
2023-12-05T08:57:49.898Z,38.60
2023-12-05T09:00:17.167Z,42.33
2023-12-05T09:02:44.021Z,38.75
2023-12-05T09:05:10.865Z,35.00
2023-12-05T09:07:39.273Z,34.47
2023-12-05T09:10:06.892Z,31.40
2023-12-05T09:12:33.874Z,27.60
2023-12-05T09:15:00.778Z,28.33
2023-12-05T09:17:27.835Z,33.78
2023-12-05T09:19:54.629Z,32.50
2023-12-05T09:22:21.979Z,33.15
2023-12-05T09:24:48.905Z,33.65
2023-12-05T09:27:15.681Z,28.95
2023-12-05T09:29:50.038Z,35.25
2023-12-05T09:32:18.940Z,36.35
2023-12-05T09:34:46.364Z,36.53
2023-12-05T09:37:14.393Z,33.42
2023-12-05T09:39:41.674Z,39.30
2023-12-05T09:42:13.613Z,37.47
2023-12-05T09:44:45.607Z,35.90
2023-12-05T09:47:16.220Z,33.25
2023-12-05T09:49:43.731Z,35.25
2023-12-05T09:52:12.102Z,37.17
2023-12-05T09:54:43.764Z,37.95
2023-12-05T09:57:13.457Z,37.28
2023-12-05T09:59:40.443Z,40.08
2023-12-05T10:02:08.371Z,45.35
2023-12-05T10:04:46.665Z,32.97
2023-12-05T10:07:14.624Z,36.35
2023-12-05T10:09:45.490Z,30.90
2023-12-05T10:12:13.260Z,36.50
2023-12-05T10:14:40.770Z,40.45
2023-12-05T10:17:09.063Z,36.90
2023-12-05T10:19:37.074Z,36.40
2023-12-05T10:22:05.120Z,34.03
2023-12-05T10:24:46.904Z,28.27
2023-12-05T10:27:14.122Z,25.98
2023-12-05T10:29:42.691Z,27.73
2023-12-05T10:32:11.219Z,30.17
2023-12-05T10:34:55.141Z,24.10
2023-12-05T10:37:26.650Z,24.90
2023-12-05T10:40:00.738Z,27.08
2023-12-05T10:42:30.158Z,32.78
2023-12-05T10:45:20.260Z,26.48
2023-12-05T10:50:14.283Z,24.33
2023-12-05T10:52:41.111Z,23.80
2023-12-05T10:55:08.495Z,22.83
2023-12-05T10:57:35.852Z,22.67
2023-12-05T11:00:07.754Z,19.83
2023-12-05T11:02:37.632Z,21.80
2023-12-05T11:05:05.693Z,21.08
2023-12-05T11:07:32.606Z,20.02
2023-12-05T11:09:59.501Z,25.23
2023-12-05T11:12:26.914Z,25.10
2023-12-05T11:14:58.440Z,22.42
2023-12-05T11:17:40.367Z,20.98
2023-12-05T11:20:31.610Z,21.10
2023-12-05T11:23:04.256Z,24.45
2023-12-05T11:25:34.035Z,19.75
2023-12-05T11:28:43.780Z,23.00
2023-12-05T11:31:26.240Z,20.75
2023-12-05T11:34:08.128Z,19.27
2023-12-05T11:37:00.301Z,23.00
2023-12-05T11:39:27.841Z,20.75
2023-12-05T11:42:15.709Z,19.77
2023-12-05T11:44:43.576Z,20.63
2023-12-05T11:47:24.484Z,13.60
2023-12-05T11:49:57.713Z,18.75
2023-12-05T11:52:28.542Z,16.95
2023-12-05T11:54:56.309Z,21.50
2023-12-05T11:57:25.422Z,22.52
2023-12-05T11:59:53.702Z,20.17
2023-12-05T12:02:40.877Z,18.27
2023-12-05T12:05:10.876Z,18.45
2023-12-05T12:07:53.815Z,15.90
2023-12-05T12:10:21.350Z,17.08
2023-12-05T12:12:48.335Z,17.83
2023-12-05T12:15:20.468Z,19.48
2023-12-05T12:17:47.365Z,23.02
2023-12-05T12:20:18.771Z,19.50
2023-12-05T12:22:50.670Z,23.10
2023-12-05T12:25:18.876Z,18.70
2023-12-05T12:27:46.015Z,20.02
2023-12-05T12:30:19.721Z,18.67
2023-12-05T12:32:55.468Z,18.83
2023-12-05T12:35:23.672Z,24.33
2023-12-05T12:37:54.783Z,25.73
2023-12-05T12:40:23.103Z,25.13
2023-12-05T12:42:56.801Z,23.25
2023-12-05T12:45:26.658Z,23.17
2023-12-05T12:47:53.957Z,25.75
2023-12-05T12:50:21.176Z,26.17
2023-12-05T12:52:49.749Z,28.45
2023-12-05T12:55:17.997Z,24.67
2023-12-05T12:57:45.303Z,20.98
2023-12-05T13:00:31.439Z,19.98
2023-12-05T13:03:02.136Z,30.48
2023-12-05T13:05:34.212Z,27.48
2023-12-05T13:08:01.634Z,28.88
2023-12-05T13:10:32.227Z,20.50
2023-12-05T13:13:00.390Z,24.20
2023-12-05T13:15:29.185Z,22.58
2023-12-05T13:18:05.020Z,27.80
2023-12-05T13:20:33.245Z,27.48
2023-12-05T13:23:01.748Z,22.85
2023-12-05T13:25:35.169Z,22.27
2023-12-05T13:28:06.790Z,24.17
2023-12-05T13:30:35.121Z,22.42
2023-12-05T13:33:02.665Z,22.15
2023-12-05T13:35:29.543Z,23.38
2023-12-05T13:37:56.609Z,27.88
2023-12-05T13:40:23.404Z,35.28
2023-12-05T13:42:50.201Z,41.53
2023-12-05T13:45:20.696Z,37.67
2023-12-05T13:47:48.557Z,44.65
2023-12-05T13:50:15.350Z,42.85
2023-12-05T13:52:42.219Z,36.53
2023-12-05T13:55:09.160Z,48.53
2023-12-05T13:57:39.398Z,33.75
2023-12-05T14:00:06.999Z,37.15
2023-12-05T14:02:34.620Z,31.35
2023-12-05T14:05:01.615Z,43.08
2023-12-05T14:07:29.203Z,38.03
2023-12-05T14:09:56.624Z,44.40
2023-12-05T14:12:24.047Z,41.25
2023-12-05T14:14:56.813Z,44.15
2023-12-05T14:17:23.723Z,39.50
2023-12-05T14:19:52.137Z,42.65
2023-12-05T14:22:19.182Z,42.15
2023-12-05T14:24:46.171Z,40.50
2023-12-05T14:27:13.069Z,41.25
2023-12-05T14:29:39.801Z,43.47
2023-12-05T14:32:07.717Z,48.97
2023-12-05T14:34:34.487Z,41.97
2023-12-05T14:37:01.824Z,45.28
2023-12-05T14:39:28.621Z,49.47
2023-12-05T14:41:55.592Z,66.47
2023-12-05T14:44:22.397Z,37.90
2023-12-05T14:46:49.326Z,36.50
2023-12-05T14:49:17.578Z,40.15
2023-12-05T14:51:44.822Z,38.20
2023-12-05T14:54:11.634Z,37.22
2023-12-05T14:56:39.894Z,37.35
2023-12-05T14:59:06.985Z,42.17
2023-12-05T15:01:34.031Z,37.60
2023-12-05T15:04:00.962Z,35.20
2023-12-05T15:06:27.815Z,46.55
2023-12-05T15:08:56.602Z,37.25
2023-12-05T15:11:27.146Z,41.50
2023-12-05T15:13:54.023Z,35.40
2023-12-05T15:16:21.226Z,47.47
2023-12-05T15:18:48.208Z,26.90
2023-12-05T15:21:15.834Z,31.85
2023-12-05T15:23:52.121Z,31.00
2023-12-05T15:26:19.824Z,26.10
2023-12-05T15:28:48.332Z,27.60
2023-12-05T15:31:19.512Z,30.58
2023-12-05T15:33:46.516Z,37.28
2023-12-05T15:36:14.136Z,34.88
2023-12-05T15:38:43.723Z,33.35
2023-12-05T15:41:14.796Z,31.15
2023-12-05T15:43:43.169Z,29.73
2023-12-05T15:46:09.999Z,34.35
2023-12-05T15:48:44.577Z,29.10
2023-12-05T15:51:13.754Z,25.52
2023-12-05T15:53:41.652Z,24.02
2023-12-05T15:56:09.438Z,39.10
2023-12-05T15:58:36.246Z,33.50
2023-12-05T16:01:03.311Z,27.50
2023-12-05T16:03:30.574Z,34.35
2023-12-05T16:05:57.336Z,26.33
2023-12-05T16:08:24.478Z,33.50
2023-12-05T16:10:53.659Z,34.95
2023-12-05T16:13:21.338Z,29.55
2023-12-05T16:15:49.237Z,34.60
2023-12-05T16:18:16.098Z,26.52
2023-12-05T16:20:43.016Z,29.75
2023-12-05T16:23:09.961Z,36.30
2023-12-05T16:25:36.875Z,29.42
2023-12-05T16:28:03.860Z,30.02
2023-12-05T16:30:30.711Z,36.38
2023-12-05T16:32:57.587Z,29.48
2023-12-05T16:35:24.568Z,32.78
2023-12-05T16:37:51.343Z,38.40
2023-12-05T16:40:18.156Z,29.27
2023-12-05T16:42:45.024Z,28.85
2023-12-05T16:45:12.229Z,36.15
2023-12-05T16:47:41.003Z,33.10
2023-12-05T16:50:08.363Z,32.25
2023-12-05T16:52:35.223Z,35.50
2023-12-05T16:55:02.329Z,44.92
2023-12-05T16:57:30.144Z,32.42
2023-12-05T16:59:57.286Z,43.78
2023-12-05T17:02:24.221Z,35.05
2023-12-05T17:04:52.462Z,36.17
2023-12-05T17:07:20.019Z,34.42
2023-12-05T17:09:47.503Z,40.25
2023-12-05T17:12:15.742Z,38.88
2023-12-05T17:14:42.560Z,32.33
2023-12-05T17:17:09.393Z,31.63
2023-12-05T17:19:36.603Z,42.45
2023-12-05T17:22:05.160Z,44.83
2023-12-05T17:24:32.022Z,34.92
2023-12-05T17:26:58.864Z,39.97
2023-12-05T17:29:25.602Z,47.72
2023-12-05T17:31:52.353Z,37.10
2023-12-05T17:34:19.276Z,94.07
2023-12-05T17:36:46.148Z,52.90
2023-12-05T17:39:12.979Z,45.13
2023-12-05T17:41:39.807Z,41.92
2023-12-05T17:44:07.086Z,42.58
2023-12-05T17:46:33.971Z,44.60
2023-12-05T17:49:00.903Z,42.75
2023-12-05T17:51:28.170Z,39.00
2023-12-05T17:53:55.022Z,49.75
2023-12-05T17:56:21.790Z,42.80
2023-12-05T17:58:49.812Z,49.83
2023-12-05T18:01:17.180Z,49.45
2023-12-05T18:03:44.442Z,49.25
2023-12-05T18:06:12.591Z,73.35
2023-12-05T18:08:41.815Z,54.33
2023-12-05T18:11:09.919Z,51.75
2023-12-05T18:13:38.028Z,51.05
2023-12-05T18:16:06.600Z,67.13
2023-12-05T18:18:33.574Z,53.72
2023-12-05T18:21:00.572Z,53.50
2023-12-05T18:23:27.374Z,48.55
2023-12-05T18:25:55.546Z,50.42
2023-12-05T18:28:22.333Z,56.40
2023-12-05T18:30:49.157Z,52.55
2023-12-05T18:33:16.120Z,62.60
2023-12-05T18:35:43.637Z,70.68
2023-12-05T18:38:11.488Z,69.18
2023-12-05T18:40:38.273Z,56.00
2023-12-05T18:43:05.248Z,72.05
2023-12-05T18:45:33.174Z,57.13
2023-12-05T18:48:00.354Z,68.80
2023-12-05T18:50:27.204Z,71.05
2023-12-05T18:52:54.032Z,66.60
2023-12-05T18:55:21.202Z,48.20
2023-12-05T18:57:49.159Z,63.58
2023-12-05T19:00:16.493Z,61.28
2023-12-05T19:02:43.477Z,68.20
2023-12-05T19:05:10.268Z,65.22
2023-12-05T19:07:37.111Z,53.92
2023-12-05T19:10:04.443Z,63.28
2023-12-05T19:12:31.395Z,58.83
2023-12-05T19:14:59.028Z,51.15
2023-12-05T19:17:28.126Z,40.25
2023-12-05T19:19:55.013Z,64.70
2023-12-05T19:22:22.186Z,60.28
2023-12-05T19:24:49.266Z,57.13
2023-12-05T19:31:00.553Z,48.72
2023-12-05T19:33:27.596Z,59.67
2023-12-05T19:35:54.537Z,58.95
2023-12-05T19:38:21.608Z,50.00
2023-12-05T19:40:49.227Z,49.70
2023-12-05T19:43:16.269Z,51.95
2023-12-05T19:45:43.317Z,35.97
2023-12-05T19:48:15.311Z,57.92
2023-12-05T19:50:42.491Z,34.55
2023-12-05T19:53:09.338Z,46.60
2023-12-05T19:55:36.684Z,40.83
2023-12-05T19:58:07.149Z,56.95
2023-12-05T20:00:34.558Z,45.40
2023-12-05T20:03:02.634Z,45.45
2023-12-05T20:05:29.520Z,41.88
2023-12-05T20:07:56.324Z,42.42
2023-12-05T20:10:24.293Z,46.38
2023-12-05T20:12:51.176Z,48.75
2023-12-05T20:15:18.689Z,51.25
2023-12-05T20:17:46.275Z,49.97
2023-12-05T20:20:14.538Z,65.45
2023-12-05T20:22:41.826Z,53.30
2023-12-05T20:25:08.915Z,53.80
2023-12-05T20:27:36.451Z,58.88
2023-12-05T20:30:04.339Z,48.40
2023-12-05T20:32:31.052Z,58.78
2023-12-05T20:34:57.948Z,59.40
2023-12-05T20:37:24.686Z,47.60
2023-12-05T20:40:35.886Z,62.55
2023-12-05T20:43:02.763Z,61.40
2023-12-05T20:45:30.127Z,55.65
2023-12-05T20:47:58.675Z,50.45
2023-12-05T20:50:25.923Z,45.20
2023-12-05T20:53:00.409Z,41.58
2023-12-05T20:55:28.093Z,51.33
2023-12-05T20:58:17.867Z,45.55
2023-12-05T21:00:45.905Z,43.85
2023-12-05T21:03:13.586Z,47.15
2023-12-05T21:05:42.143Z,43.40
2023-12-05T21:08:15.637Z,39.83
2023-12-05T21:10:42.844Z,47.55
2023-12-05T21:13:09.788Z,45.70
2023-12-05T21:15:37.450Z,55.00
2023-12-05T21:18:05.088Z,47.80
2023-12-05T21:20:31.948Z,50.38
2023-12-05T21:22:58.696Z,41.72
2023-12-05T21:25:25.597Z,39.30
2023-12-05T21:27:52.485Z,45.83
2023-12-05T21:31:21.467Z,44.67
2023-12-05T21:33:48.271Z,40.80
2023-12-05T21:36:26.894Z,52.08
2023-12-05T21:38:58.569Z,42.95
2023-12-05T21:41:26.690Z,52.03
2023-12-05T21:43:53.538Z,43.70
2023-12-05T21:46:25.206Z,44.33
2023-12-05T21:48:52.272Z,46.83
2023-12-05T21:51:19.161Z,48.83
2023-12-05T21:53:45.973Z,50.63
2023-12-05T21:56:15.422Z,41.88
2023-12-05T21:58:42.140Z,52.22
2023-12-05T22:01:13.140Z,44.00
2023-12-05T22:03:40.918Z,43.70
2023-12-05T22:06:08.377Z,40.75
2023-12-05T22:08:35.423Z,36.00
2023-12-05T22:11:02.992Z,43.53
2023-12-05T22:13:33.895Z,40.25
2023-12-05T22:16:02.538Z,54.03
2023-12-05T22:18:29.984Z,54.65
2023-12-05T22:20:57.756Z,45.90
2023-12-05T22:23:25.845Z,55.80
2023-12-05T22:25:53.458Z,56.25
2023-12-05T22:28:20.283Z,59.60
2023-12-05T22:30:47.150Z,42.35
2023-12-05T22:33:15.375Z,49.55
2023-12-05T22:35:43.574Z,48.35
2023-12-05T22:38:10.619Z,50.58
2023-12-05T22:40:37.668Z,46.83
2023-12-05T22:43:04.605Z,45.05
2023-12-05T22:45:31.436Z,53.22
2023-12-05T22:47:58.305Z,51.13
2023-12-05T22:50:25.133Z,50.20
2023-12-05T22:52:53.178Z,48.00
2023-12-05T22:55:20.661Z,55.40
2023-12-05T22:57:47.830Z,62.50
2023-12-05T23:00:21.248Z,48.58
2023-12-05T23:02:49.082Z,52.72
2023-12-05T23:05:15.948Z,51.22
2023-12-05T23:07:42.805Z,57.20
2023-12-05T23:10:09.809Z,59.35
2023-12-05T23:12:37.611Z,68.88
2023-12-05T23:15:04.700Z,64.00
2023-12-05T23:17:31.589Z,53.67
2023-12-05T23:19:58.445Z,60.50
2023-12-05T23:22:25.201Z,56.83
2023-12-05T23:24:52.646Z,55.72
2023-12-05T23:27:19.621Z,57.22
2023-12-05T23:29:47.295Z,53.10
2023-12-05T23:32:14.173Z,53.22
2023-12-05T23:34:40.936Z,56.22
2023-12-05T23:37:07.740Z,57.95
2023-12-05T23:39:34.547Z,55.92
2023-12-05T23:42:01.278Z,65.53
2023-12-05T23:44:28.171Z,62.90
2023-12-05T23:46:55.732Z,64.13
2023-12-05T23:49:22.592Z,60.97
2023-12-05T23:51:49.409Z,70.95
2023-12-05T23:54:16.484Z,53.10
2023-12-05T23:56:43.300Z,64.13
2023-12-05T23:59:10.054Z,63.90
